Terminal Aerodrome Forecast
Issued by NWS

Home | Current Version | Previous Version | Text Only | Print | Product List | Glossary On
Versions: 1 2 3 4 5 6 7 8 9 10 11 12 13 14 15 16 17 18 19 20 21 22 23 24 25 26 27 28 29 30 31 32 33 34 35 36 37 38
000
FTUS45 KPSR 301500 AAC
TAFIWA
TAF AMD
KIWA 301526Z 3015/3112 14004KT P6SM -SHRA BKN020 OVC040
      TEMPO 3015/3017 2SM -RA BR BKN015 OVC035
     FM301700 10004KT 3SM -RA BR OVC020
      TEMPO 3018/3022 1 1/2SM -RA BR SCT008 OVC020
     FM302200 10006KT 6SM -RA BR SCT008 BKN025 OVC035=

USA.gov is the U.S. government's official web portal to all federal, state and local government web resources and services.